MSSS/SAL METAR and TAF weather

Enter ICAO airport designator
Station Type Date Time Source
MSSS METAR 2021/03/08 23:50 UTC NOAA

MSSS 082350Z 36010G20KT 9999 FEW060 26/16 Q1017 A3004


Station Type Date Time Source
MSSS Decoded METAR 2021/03/08 23:50 UTC NOAA

San Salvador / Ilopango, El Salvador (MSSS) 13-42N 089-07W 621M
Mar 08, 2021 - 06:50 PM EST / 2021.03.08 2350 UTC
Wind: from the N (360 degrees) at 12 MPH (10 KT) gusting to 23 MPH (20 KT):0
Visibility: greater than 7 mile(s):0
Sky conditions: mostly clear
Temperature: 78 F (26 C)
Dew Point: 60 F (16 C)
Relative Humidity: 54%
Pressure (altimeter): 30.04 in. Hg (1017 hPa)
ob: MSSS 082350Z 36010G20KT 9999 FEW060 26/16 Q1017 A3004
cycle: 0

Station Type Date Time Source
MSSS TAF 2021/03/09 12:28 UTC NOAA

TAF MSSS 090925Z 0912/1012 34015G30KT CAVOK TX32/0920Z TN21/1012Z
TEMPO 0920/0924 02010G20KT 9999 SCT050
FM100000 34012KT CAVOK

Example: see airport list